Latest Weather Observations for Lake Macquarie - Cooranbong

IDN60801

Issued at 12:12 pm EST Saturday 23 June 2018 (issued every 10 minutes, with the page automatically refreshed every 10 minutes)

About weather observations | Map of weather stations | Latest weather observations for NSW | Other Formats
Station Details ID: 061412 Name: LAKE MACQUARIE AWS Lat: -33.09 Lon: 151.46 Height: 6.0 m
Data from the previous 72 hours. | See also: Recent months at Lake Macquarie - Cooranbong
Date/Time
EST
Temp
°C
App
Temp
°C
Dew
Point
°C
Rel
Hum
%
Delta-T
°C
Wind Press
QNH
hPa
Press
MSL
hPa
Rain since
9am
mm
Dir  Spd
km/h
Gust
km/h
Spd
kts
Gust
kts
23/12:00pm 17.8 17.8 9.7 59 4.2 CALM 0 0 0 0 1023.9 1023.9 0.0
23/11:30am 17.7 17.7 11.0 65 3.6 NNE 2 4 1 2 1024.4 1024.4 0.0
23/11:00am 16.2 16.3 10.1 67 3.2 CALM 0 4 0 2 1024.8 1024.8 0.0
23/10:30am 13.9 14.0 10.3 79 1.9 CALM 0 0 0 0 1025.1 1025.1 0.0
23/10:00am 12.8 12.9 10.0 83 1.4 CALM 0 0 0 0 1025.4 1025.4 0.0
23/09:30am 10.3 10.1 8.9 91 0.7 CALM 0 0 0 0 1025.6 1025.6 0.0
23/09:00am 7.5 6.8 7.1 97 0.2 CALM 0 0 0 0 1025.7 1025.7 0.2
23/08:30am 5.6 4.5 5.3 98 0.1 CALM 0 0 0 0 1025.6 1025.6 0.2
23/08:00am 3.5 2.0 3.2 98 0.1 CALM 0 0 0 0 1025.6 1025.6 0.2
23/07:30am 1.9 0.2 1.6 98 0.1 CALM 0 0 0 0 1025.6 1025.6 0.2
23/07:00am 1.8 0.0 1.4 97 0.2 CALM 0 0 0 0 1025.3 1025.3 0.2
23/06:30am 1.8 0.0 1.4 97 0.2 CALM 0 0 0 0 1025.0 1025.0 0.2
23/06:00am 2.2 0.5 1.8 97 0.2 CALM 0 0 0 0 1024.8 1024.8 0.2
23/05:30am 2.4 0.7 2.1 98 0.1 CALM 0 0 0 0 1024.5 1024.5 0.2
23/05:00am 2.5 0.9 2.2 98 0.1 CALM 0 0 0 0 1024.6 1024.6 0.0
23/04:30am 2.7 1.1 2.3 97 0.2 CALM 0 0 0 0 1024.4 1024.4 0.0
23/04:00am 2.8 1.2 2.4 97 0.2 CALM 0 0 0 0 1024.3 1024.3 0.0
23/03:30am 2.9 1.3 2.5 97 0.2 CALM 0 0 0 0 1024.5 1024.5 0.0
23/03:00am 3.1 1.5 2.7 97 0.2 CALM 0 0 0 0 1024.6 1024.6 0.0
23/02:30am 3.5 2.0 3.1 97 0.2 CALM 0 0 0 0 1024.9 1024.9 0.0
23/02:00am 3.7 2.3 3.3 97 0.2 CALM 0 0 0 0 1025.1 1025.1 0.0
23/01:30am 4.0 2.6 3.6 97 0.2 CALM 0 0 0 0 1025.2 1025.2 0.0
23/01:00am 4.2 2.8 3.8 97 0.2 CALM 0 0 0 0 1025.4 1025.4 0.0
23/12:30am 4.5 3.2 4.1 97 0.2 CALM 0 0 0 0 1025.8 1025.8 0.0
23/12:00am 4.9 3.7 4.5 97 0.2 CALM 0 0 0 0 1026.1 1026.1 0.0
 
Date/Time
EST
Temp
°C
App
Temp
°C
Dew
Point
°C
Rel
Hum
%
Delta-T
°C
Wind Press
QNH
hPa
Press
MSL
hPa
Rain since
9am
mm
Dir  Spd
km/h
Gust
km/h
Spd
kts
Gust
kts
22/11:30pm 5.2 4.0 4.8 97 0.2 CALM 0 0 0 0 1026.3 1026.3 0.0
22/11:00pm 5.6 4.5 5.2 97 0.2 CALM 0 0 0 0 1026.5 1026.5 0.0
22/10:30pm 6.0 5.0 5.6 97 0.2 CALM 0 0 0 0 1026.6 1026.6 0.0
22/10:00pm 6.3 5.3 5.7 96 0.3 CALM 0 0 0 0 1026.6 1026.6 0.0
22/09:30pm 6.9 6.1 6.3 96 0.3 CALM 0 0 0 0 1026.7 1026.7 0.0
22/09:00pm 7.4 6.7 6.8 96 0.3 CALM 0 0 0 0 1026.7 1026.7 0.0
22/08:30pm 7.4 5.9 6.8 96 0.3 N 4 4 2 2 1026.7 1026.7 0.0
22/08:00pm 8.3 7.8 7.7 96 0.3 CALM 0 0 0 0 1026.8 1026.8 0.0
22/07:30pm 9.2 8.5 8.6 96 0.3 NNW 2 4 1 2 1026.8 1026.8 0.0
22/07:00pm 9.2 8.8 8.4 95 0.4 CALM 0 0 0 0 1026.7 1026.7 0.0
22/06:30pm 9.9 9.7 9.0 94 0.4 CALM 0 0 0 0 1026.4 1026.4 0.0
22/06:00pm 11.2 11.3 10.1 93 0.6 CALM 0 0 0 0 1026.4 1026.4 0.0
22/05:30pm 12.4 12.6 10.6 89 0.9 CALM 0 0 0 0 1026.3 1026.3 0.0
22/05:00pm 13.9 14.3 11.1 83 1.5 CALM 0 0 0 0 1026.2 1026.2 0.0
22/04:30pm 15.3 15.0 11.5 78 2.0 E 4 7 2 4 1026.1 1026.1 0.0
22/04:00pm 16.4 15.6 10.9 70 2.9 E 6 9 3 5 1026.1 1026.1 0.0
22/03:30pm 17.3 16.7 10.4 64 3.7 ENE 4 6 2 3 1026.0 1026.0 0.0
22/03:00pm 17.1 16.3 11.8 71 2.9 E 7 13 4 7 1026.0 1026.0 0.0
22/02:30pm 17.3 16.0 11.3 68 3.2 E 9 11 5 6 1026.1 1026.1 0.0
22/02:00pm 18.5 17.9 11.6 64 3.8 ENE 6 7 3 4 1026.0 1026.0 0.0
22/01:30pm 17.9 18.0 11.5 66 3.5 E 2 4 1 2 1026.2 1026.2 0.0
22/01:00pm 18.1 18.1 11.0 63 3.8 N 2 4 1 2 1026.6 1026.6 0.0
22/12:30pm 18.0 17.5 10.6 62 4.0 NNE 4 6 2 3 1027.0 1027.0 0.0
22/12:00pm 17.1 17.3 10.5 65 3.5 CALM 0 6 0 3 1027.6 1027.6 0.0
22/11:30am 16.8 16.3 10.9 68 3.2 NE 4 6 2 3 1028.1 1028.1 0.0
22/11:00am 16.0 16.4 11.2 73 2.6 CALM 0 0 0 0 1028.5 1028.5 0.0
22/10:30am 15.0 15.3 11.0 77 2.1 CALM 0 0 0 0 1028.7 1028.7 0.0
22/10:00am 12.9 13.2 10.8 87 1.1 CALM 0 0 0 0 1028.9 1028.9 0.0
22/09:30am 11.7 11.9 10.6 93 0.6 CALM 0 0 0 0 1028.9 1028.9 0.0
22/09:00am 10.5 10.6 10.2 98 0.2 CALM 0 0 0 0 1028.8 1028.8 0.2
22/08:30am 7.5 6.9 7.2 98 0.1 CALM 0 0 0 0 1028.7 1028.7 0.2
22/08:00am 6.0 5.0 5.7 98 0.1 CALM 0 0 0 0 1028.7 1028.7 0.2
22/07:30am 4.8 3.6 4.4 97 0.2 CALM 0 0 0 0 1028.5 1028.5 0.2
22/07:00am 4.7 3.4 4.3 97 0.2 CALM 0 0 0 0 1028.2 1028.2 0.2
22/06:30am 4.8 3.6 4.4 97 0.2 CALM 0 0 0 0 1027.8 1027.8 0.2
22/06:00am 5.2 4.0 4.8 97 0.2 CALM 0 0 0 0 1027.6 1027.6 0.2
22/05:30am 5.6 4.5 5.2 97 0.2 CALM 0 0 0 0 1027.6 1027.6 0.2
22/05:00am 5.7 4.6 5.3 97 0.2 CALM 0 0 0 0 1027.4 1027.4 0.2
22/04:30am 6.0 5.0 5.6 97 0.2 CALM 0 0 0 0 1027.4 1027.4 0.2
22/04:00am 6.8 6.0 6.5 98 0.1 CALM 0 0 0 0 1027.4 1027.4 0.2
22/03:30am 6.8 6.0 6.4 97 0.2 CALM 0 0 0 0 1027.6 1027.6 0.2
22/03:00am 7.1 6.3 6.7 97 0.2 CALM 0 0 0 0 1027.6 1027.6 0.0
22/02:30am 8.0 7.1 7.7 98 0.1 ENE 2 4 1 2 1027.7 1027.7 0.0
22/02:00am 8.0 7.1 7.7 98 0.1 N 2 4 1 2 1027.6 1027.6 0.0
22/01:30am 7.3 6.6 7.0 98 0.1 CALM 0 0 0 0 1027.6 1027.6 0.0
22/01:00am 7.0 6.2 6.6 97 0.2 CALM 0 0 0 0 1027.8 1027.8 0.0
22/12:30am 7.3 6.2 6.9 97 0.2 N 2 4 1 2 1028.0 1028.0 0.0
22/12:00am 7.4 6.7 7.0 97 0.2 CALM 0 0 0 0 1028.2 1028.2 0.0
 
Date/Time
EST
Temp
°C
App
Temp
°C
Dew
Point
°C
Rel
Hum
%
Delta-T
°C
Wind Press
QNH
hPa
Press
MSL
hPa
Rain since
9am
mm
Dir  Spd
km/h
Gust
km/h
Spd
kts
Gust
kts
21/11:30pm 7.6 7.0 7.2 97 0.2 CALM 0 0 0 0 1028.3 1028.3 0.0
21/11:00pm 8.3 7.8 7.7 96 0.3 CALM 0 0 0 0 1028.3 1028.3 0.0
21/10:30pm 8.9 8.6 8.5 97 0.2 CALM 0 0 0 0 1028.2 1028.2 0.0
21/10:00pm 9.3 9.0 8.7 96 0.3 CALM 0 0 0 0 1028.1 1028.1 0.0
21/09:30pm 9.3 9.0 8.7 96 0.3 CALM 0 0 0 0 1028.0 1028.0 0.0
21/09:00pm 10.4 10.4 9.8 96 0.3 CALM 0 0 0 0 1028.0 1028.0 0.0
21/08:30pm 10.7 10.7 9.9 95 0.4 CALM 0 0 0 0 1028.1 1028.1 0.0
21/08:00pm 11.3 11.5 10.5 95 0.4 CALM 0 4 0 2 1028.0 1028.0 0.0
21/07:30pm 12.1 12.5 11.3 95 0.4 CALM 0 0 0 0 1027.9 1027.9 0.0
21/07:00pm 12.3 12.5 11.7 96 0.3 NNW 2 4 1 2 1027.9 1027.9 0.0
21/06:30pm 12.3 12.8 11.5 95 0.4 CALM 0 0 0 0 1027.8 1027.8 0.0
21/06:00pm 12.3 12.7 11.4 94 0.5 CALM 0 0 0 0 1027.6 1027.6 0.0
21/05:30pm 12.5 12.9 11.2 92 0.7 CALM 0 0 0 0 1027.3 1027.3 0.0
21/05:00pm 13.4 14.0 11.8 90 0.8 CALM 0 0 0 0 1027.1 1027.1 0.0
21/04:30pm 13.9 14.6 12.1 89 1.0 CALM 0 4 0 2 1027.0 1027.0 0.0
21/04:00pm 14.2 14.1 12.1 87 1.1 NNW 4 7 2 4 1026.9 1026.9 0.0
21/03:30pm 14.5 15.0 12.7 89 1.0 N 2 4 1 2 1026.9 1026.9 0.0
21/03:00pm 14.7 14.8 12.6 87 1.1 NNW 4 6 2 3 1026.9 1026.9 0.0
21/02:30pm 14.8 14.6 11.9 83 1.6 N 4 7 2 4 1026.8 1026.8 0.0
21/02:00pm 14.9 14.3 11.7 81 1.7 N 6 7 3 4 1026.8 1026.8 0.0
21/01:30pm 15.1 14.9 11.9 81 1.7 ENE 4 6 2 3 1027.0 1027.0 0.0
21/01:00pm 15.1 14.9 11.7 80 1.8 NE 4 4 2 2 1027.3 1027.3 0.0
21/12:30pm 15.2 14.9 11.6 79 1.9 ESE 4 7 2 4 1027.6 1027.6 0.0
21/12:00pm 15.2 15.4 11.8 80 1.8 SSW 2 6 1 3 1027.9 1027.9 0.0
21/11:30am 14.6 14.9 12.1 85 1.4 SSW 2 4 1 2 1028.3 1028.3 0.0
21/11:00am 14.4 14.5 11.6 83 1.5 SW 2 4 1 2 1028.5 1028.5 0.0
21/10:30am 14.2 14.1 12.2 88 1.1 WSW 4 6 2 3 1028.5 1028.5 0.0
21/10:00am 13.4 13.4 11.3 87 1.1 ESE 2 4 1 2 1028.8 1028.8 0.0
21/09:30am 13.0 13.4 11.2 89 0.9 CALM 0 2 0 1 1028.7 1028.7 0.0
21/09:00am 12.4 12.0 11.0 91 0.7 WNW 4 7 2 4 1028.5 1028.5 2.8
21/08:30am 12.0 11.5 10.9 93 0.6 WSW 4 6 2 3 1028.3 1028.3 2.8
21/08:00am 11.6 11.1 10.8 95 0.4 WNW 4 6 2 3 1028.2 1028.2 2.8
21/07:30am 11.6 11.9 10.8 95 0.4 CALM 0 0 0 0 1028.1 1028.1 2.2
21/07:00am 11.5 11.7 10.7 95 0.4 CALM 0 0 0 0 1027.8 1027.8 1.8
21/06:30am 11.4 11.6 10.5 94 0.5 CALM 0 2 0 1 1027.5 1027.5 1.2
21/06:00am 11.6 11.7 10.3 92 0.7 CALM 0 2 0 1 1027.0 1027.0 0.4
21/05:30am 11.6 11.0 10.3 92 0.7 W 4 6 2 3 1026.6 1026.6 0.4
21/05:00am 11.7 11.9 10.4 92 0.7 CALM 0 2 0 1 1026.5 1026.5 0.4
21/04:30am 11.7 11.8 10.3 91 0.7 CALM 0 4 0 2 1026.4 1026.4 0.4
21/04:00am 11.6 11.8 10.5 93 0.6 CALM 0 4 0 2 1026.2 1026.2 0.4
21/03:30am 11.7 12.0 10.8 94 0.5 CALM 0 0 0 0 1026.3 1026.3 0.4
21/03:00am 11.6 11.8 10.7 94 0.5 CALM 0 0 0 0 1026.4 1026.4 0.4
21/02:30am 11.9 12.1 10.5 91 0.7 CALM 0 4 0 2 1026.5 1026.5 0.4
21/02:00am 12.1 11.5 10.5 90 0.8 WSW 4 7 2 4 1026.6 1026.6 0.4
21/01:30am 12.1 11.6 10.7 91 0.7 WSW 4 7 2 4 1026.8 1026.8 0.2
21/01:00am 11.6 11.8 10.7 94 0.5 CALM 0 0 0 0 1026.9 1026.9 0.0
21/12:30am 11.6 11.8 10.7 94 0.5 CALM 0 4 0 2 1026.8 1026.8 0.0
21/12:00am 11.5 11.7 10.6 94 0.5 CALM 0 0 0 0 1027.0 1027.0 0.0
 
Date/Time
EST
Temp
°C
App
Temp
°C
Dew
Point
°C
Rel
Hum
%
Delta-T
°C
Wind Press
QNH
hPa
Press
MSL
hPa
Rain since
9am
mm
Dir  Spd
km/h
Gust
km/h
Spd
kts
Gust
kts
20/11:30pm 11.7 12.0 10.8 94 0.5 CALM 0 0 0 0 1027.2 1027.2 0.0
20/11:00pm 11.9 12.2 10.8 93 0.6 CALM 0 4 0 2 1027.3 1027.3 0.0
20/10:30pm 12.0 12.2 10.7 92 0.7 CALM 0 2 0 1 1027.7 1027.7 0.0
20/10:00pm 11.8 12.0 10.4 91 0.7 CALM 0 0 0 0 1027.8 1027.8 0.0
20/09:30pm 11.9 12.1 10.6 92 0.7 CALM 0 0 0 0 1028.0 1028.0 0.0
20/09:00pm 11.9 12.1 10.5 91 0.7 CALM 0 0 0 0 1027.8 1027.8 0.0
20/08:30pm 12.3 12.1 10.4 88 1.0 SW 2 4 1 2 1027.7 1027.7 0.0
20/08:00pm 11.9 11.6 10.1 89 0.9 WSW 2 6 1 3 1027.5 1027.5 0.0
20/07:30pm 11.4 11.0 9.8 90 0.8 WSW 2 6 1 3 1027.4 1027.4 0.0
20/07:00pm 12.2 11.5 10.1 87 1.1 WSW 4 7 2 4 1027.2 1027.2 0.0
20/06:30pm 11.7 11.3 9.9 89 0.9 SW 2 6 1 3 1027.2 1027.2 0.0
20/06:00pm 11.8 11.8 9.9 88 1.0 CALM 0 2 0 1 1026.8 1026.8 0.0
20/05:30pm 12.1 11.8 10.0 87 1.1 WSW 2 6 1 3 1026.7 1026.7 0.0
20/05:00pm 13.2 12.9 10.2 82 1.5 SW 2 6 1 3 1026.5 1026.5 0.0
20/04:30pm 15.0 14.4 10.4 74 2.4 WSW 4 6 2 3 1026.2 1026.2 0.0
20/04:00pm 16.4 15.7 10.0 66 3.3 S 4 9 2 5 1026.0 1026.0 0.0
20/03:30pm 16.4 15.1 10.0 66 3.4 SSE 7 15 4 8 1025.9 1025.9 0.0
20/03:00pm 17.7 16.2 9.3 58 4.4 SSE 7 13 4 7 1025.6 1025.6 0.0
20/02:30pm 17.8 16.0 9.4 58 4.4 SSE 9 20 5 11 1025.4 1025.4 0.0
20/02:00pm 18.0 16.7 10.1 60 4.2 S 7 13 4 7 1025.4 1025.4 0.0
20/01:30pm 17.9 16.8 10.8 63 3.8 SSE 7 17 4 9 1025.4 1025.4 0.0
20/01:00pm 17.1 16.6 12.2 73 2.7 SSW 6 11 3 6 1025.6 1025.6 0.0
20/12:30pm 15.6 15.3 11.6 77 2.2 SW 4 7 2 4 1026.1 1026.1 0.0

Other Formats:

Comma delimited format used in spreadsheet applications
http://www.bom.gov.au/fwo/IDN60801/IDN60801.95767.axf

JavaScript Object Notation format (JSON) in row-major order
http://www.bom.gov.au/fwo/IDN60801/IDN60801.95767.json